createdAt,value
2018-07-19T00:01:56.683Z,101554.08
2018-07-19T00:04:23.702Z,101549.75
2018-07-19T00:06:50.690Z,101550.39
2018-07-19T00:09:17.678Z,101551.72
2018-07-19T00:11:44.696Z,101560.62
2018-07-19T00:14:11.705Z,101562.42
2018-07-19T00:16:38.696Z,101557.30
2018-07-19T00:19:05.732Z,101557.46
2018-07-19T00:21:32.692Z,101559.71
2018-07-19T00:24:00.051Z,101560.68
2018-07-19T00:26:27.025Z,101552.20
2018-07-19T00:28:54.045Z,101553.33
2018-07-19T00:31:21.135Z,101547.84
2018-07-19T00:33:48.175Z,101549.16
2018-07-19T00:36:15.144Z,101545.71
2018-07-19T00:38:42.158Z,101546.33
2018-07-19T00:41:09.188Z,101537.88
2018-07-19T00:43:36.356Z,101546.13
2018-07-19T00:46:03.370Z,101542.45
2018-07-19T00:48:30.324Z,101541.73
2018-07-19T00:50:57.339Z,101538.77
2018-07-19T00:53:24.356Z,101540.22
2018-07-19T00:55:51.481Z,101543.51
2018-07-19T00:58:18.476Z,101541.11
2018-07-19T01:00:45.488Z,101543.08
2018-07-19T01:03:12.604Z,101535.91
2018-07-19T01:05:39.649Z,101534.39
2018-07-19T01:08:06.665Z,101532.75
2018-07-19T01:10:33.652Z,101538.87
2018-07-19T01:13:00.645Z,101538.03
2018-07-19T01:15:27.693Z,101546.60
2018-07-19T01:17:54.667Z,101538.41
2018-07-19T01:20:21.653Z,101540.84
2018-07-19T01:22:48.940Z,101540.16
2018-07-19T01:25:16.197Z,101540.32
2018-07-19T01:27:43.233Z,101534.40
2018-07-19T01:30:10.257Z,101534.68
2018-07-19T01:32:37.318Z,101531.00
2018-07-19T01:35:04.529Z,101538.29
2018-07-19T01:37:31.549Z,101540.61
2018-07-19T01:39:58.529Z,101534.48
2018-07-19T01:42:32.173Z,101536.92
2018-07-19T01:44:59.220Z,101530.96
2018-07-19T01:47:26.252Z,101528.80
2018-07-19T01:49:53.258Z,101529.77
2018-07-19T01:52:20.236Z,101533.68
2018-07-19T01:54:47.264Z,101537.08
2018-07-19T01:57:15.476Z,101531.63
2018-07-19T01:59:43.097Z,101536.08
2018-07-19T02:02:10.320Z,101536.91
2018-07-19T02:04:37.309Z,101532.03
2018-07-19T02:07:04.901Z,101529.08
2018-07-19T02:09:31.949Z,101527.55
2018-07-19T02:11:59.263Z,101529.51
2018-07-19T02:14:26.264Z,101525.63
2018-07-19T02:16:53.529Z,101528.74
2018-07-19T02:19:20.565Z,101527.22
2018-07-19T02:21:47.605Z,101530.14
2018-07-19T02:24:14.712Z,101526.97
2018-07-19T02:26:41.786Z,101526.61
2018-07-19T02:29:09.429Z,101530.22
2018-07-19T02:31:36.621Z,101529.69
2018-07-19T02:34:04.181Z,101529.12
2018-07-19T02:36:31.261Z,101530.23
2018-07-19T02:38:58.464Z,101527.27
2018-07-19T02:41:25.541Z,101526.70
2018-07-19T02:43:52.631Z,101531.45
2018-07-19T02:46:19.658Z,101530.41
2018-07-19T02:48:46.673Z,101535.69
2018-07-19T02:51:13.821Z,101536.13
2018-07-19T02:53:40.965Z,101531.34
2018-07-19T02:56:08.153Z,101529.17
2018-07-19T02:58:35.605Z,101531.34
2018-07-19T03:01:02.626Z,101531.81
2018-07-19T03:03:29.669Z,101531.34
2018-07-19T03:05:56.633Z,101530.02
2018-07-19T03:08:23.649Z,101523.69
2018-07-19T03:10:50.761Z,101523.69
2018-07-19T03:13:17.736Z,101520.04
2018-07-19T03:15:44.737Z,101530.23
2018-07-19T03:18:11.728Z,101529.19
2018-07-19T03:20:39.274Z,101522.27
2018-07-19T03:23:06.349Z,101522.74
2018-07-19T03:25:33.425Z,101518.30
2018-07-19T03:28:00.409Z,101518.42
2018-07-19T03:30:27.408Z,101521.75
2018-07-19T03:32:54.507Z,101524.39
2018-07-19T03:35:21.604Z,101520.59
2018-07-19T03:37:48.613Z,101522.06
2018-07-19T03:40:15.631Z,101522.06
2018-07-19T03:42:42.709Z,101521.70
2018-07-19T03:45:10.381Z,101518.91
2018-07-19T03:47:37.479Z,101521.91
2018-07-19T03:50:04.532Z,101521.70
2018-07-19T03:52:31.616Z,101519.54
2018-07-19T03:54:58.848Z,101518.22
2018-07-19T03:57:25.898Z,101523.38
2018-07-19T03:59:53.650Z,101523.86
2018-07-19T04:02:20.669Z,101529.66
2018-07-19T04:04:47.672Z,101522.95
2018-07-19T04:07:14.696Z,101531.40
2018-07-19T04:09:41.690Z,101530.28
2018-07-19T04:12:08.830Z,101531.48
2018-07-19T04:14:35.850Z,101531.78
2018-07-19T04:17:02.947Z,101538.05
2018-07-19T04:19:29.905Z,101543.50
2018-07-19T04:21:56.975Z,101541.58
2018-07-19T04:24:24.340Z,101544.95
2018-07-19T04:26:51.385Z,101541.56
2018-07-19T04:29:19.419Z,101548.89
2018-07-19T04:31:46.454Z,101549.61
2018-07-19T04:34:13.497Z,101554.95
2018-07-19T04:36:40.650Z,101550.91
2018-07-19T04:39:08.633Z,101554.28
2018-07-19T04:41:35.663Z,101562.13
2018-07-19T04:44:02.640Z,101560.48
2018-07-19T04:46:29.748Z,101569.62
2018-07-19T04:48:56.753Z,101564.54
2018-07-19T04:51:23.749Z,101567.06
2018-07-19T04:53:50.773Z,101565.14
2018-07-19T04:56:17.807Z,101570.34
2018-07-19T04:58:44.818Z,101574.67
2018-07-19T05:01:11.828Z,101572.55
2018-07-19T05:03:38.848Z,101574.44
2018-07-19T05:06:05.934Z,101581.77
2018-07-19T05:08:32.957Z,101579.52
2018-07-19T05:10:59.976Z,101585.20
2018-07-19T05:13:26.997Z,101582.95
2018-07-19T05:15:54.168Z,101576.02
2018-07-19T05:18:21.245Z,101581.70
2018-07-19T05:20:48.313Z,101589.32
2018-07-19T05:23:15.496Z,101585.71
2018-07-19T05:25:43.663Z,101593.39
2018-07-19T05:28:10.709Z,101594.43
2018-07-19T05:30:37.701Z,101594.47
2018-07-19T05:33:04.795Z,101589.86
2018-07-19T05:35:31.841Z,101596.14
2018-07-19T05:37:58.845Z,101592.22
2018-07-19T05:40:25.980Z,101597.34
2018-07-19T05:42:53.200Z,101591.64
2018-07-19T05:45:20.261Z,101596.93
2018-07-19T05:47:47.281Z,101593.36
2018-07-19T05:50:14.274Z,101599.36
2018-07-19T05:52:41.320Z,101595.78
2018-07-19T05:55:08.436Z,101593.17
2018-07-19T05:57:35.589Z,101595.27
2018-07-19T06:00:02.669Z,101590.71
2018-07-19T06:02:29.668Z,101596.74
2018-07-19T06:04:56.727Z,101598.09
2018-07-19T06:07:23.733Z,101593.77
2018-07-19T06:09:50.730Z,101591.86
2018-07-19T06:12:17.747Z,101590.27
2018-07-19T06:14:44.733Z,101593.67
2018-07-19T06:17:11.813Z,101594.23
2018-07-19T06:19:38.848Z,101598.45
2018-07-19T06:22:05.895Z,101598.83
2018-07-19T06:24:32.955Z,101594.26
2018-07-19T06:26:59.985Z,101601.14
2018-07-19T06:29:26.949Z,101599.05
2018-07-19T06:31:54.285Z,101594.12
2018-07-19T06:34:21.308Z,101595.17
2018-07-19T06:36:48.356Z,101595.53
2018-07-19T06:39:15.485Z,101592.70
2018-07-19T06:41:42.497Z,101600.17
2018-07-19T06:44:09.524Z,101597.89
2018-07-19T06:46:36.617Z,101602.59
2018-07-19T06:49:03.674Z,101602.65
2018-07-19T06:51:30.711Z,101601.06
2018-07-19T06:53:57.709Z,101603.28
2018-07-19T06:56:24.717Z,101597.84
2018-07-19T06:58:51.762Z,101602.70
2018-07-19T07:01:18.797Z,101605.70
2018-07-19T07:03:45.789Z,101608.89
2018-07-19T07:06:12.908Z,101607.73
2018-07-19T07:08:39.925Z,101607.77
2018-07-19T07:11:07.146Z,101604.14
2018-07-19T07:13:34.189Z,101604.66
2018-07-19T07:16:01.205Z,101610.66
2018-07-19T07:18:28.240Z,101607.16
2018-07-19T07:20:55.205Z,101603.03
2018-07-19T07:23:22.269Z,101602.70
2018-07-19T07:25:53.840Z,101611.03
2018-07-19T07:28:22.196Z,101600.75
2018-07-19T07:30:49.097Z,101607.26
2018-07-19T07:33:16.811Z,101603.11
2018-07-19T07:35:44.357Z,101598.60
2018-07-19T07:38:11.493Z,101600.94
2018-07-19T07:40:38.526Z,101594.78
2018-07-19T07:43:07.121Z,101600.75
2018-07-19T07:45:34.277Z,101603.39
2018-07-19T07:48:01.465Z,101601.73
2018-07-19T07:50:29.093Z,101604.73
2018-07-19T07:52:56.181Z,101600.54
2018-07-19T07:55:23.213Z,101608.33
2018-07-19T07:57:50.345Z,101605.03
2018-07-19T08:00:17.405Z,101605.17
2018-07-19T08:02:44.549Z,101600.66
2018-07-19T08:05:11.543Z,101604.79
2018-07-19T08:07:38.560Z,101598.61
2018-07-19T08:10:05.570Z,101590.59
2018-07-19T08:12:32.593Z,101594.56
2018-07-19T08:14:59.632Z,101597.19
2018-07-19T08:17:26.677Z,101598.37
2018-07-19T08:19:53.694Z,101605.33
2018-07-19T08:22:20.717Z,101606.97
2018-07-19T08:24:47.724Z,101604.27
2018-07-19T08:27:14.745Z,101593.55
2018-07-19T08:29:41.748Z,101601.07
2018-07-19T08:32:08.833Z,101600.35
2018-07-19T08:34:35.893Z,101602.52
2018-07-19T08:37:02.941Z,101599.31
2018-07-19T08:39:29.937Z,101588.77
2018-07-19T08:41:57.009Z,101597.36
2018-07-19T08:44:23.977Z,101591.78
2018-07-19T08:46:51.005Z,101593.41
2018-07-19T08:49:18.021Z,101592.85
2018-07-19T08:51:45.026Z,101587.68
2018-07-19T08:54:12.054Z,101591.18
2018-07-19T08:56:39.165Z,101591.12
2018-07-19T08:59:06.192Z,101588.69
2018-07-19T09:01:33.219Z,101584.20
2018-07-19T09:04:00.220Z,101587.84
2018-07-19T09:06:27.273Z,101588.16
2018-07-19T09:08:54.273Z,101587.06
2018-07-19T09:11:21.246Z,101592.27
2018-07-19T09:13:48.236Z,101595.47
2018-07-19T09:16:15.337Z,101588.55
2018-07-19T09:18:42.413Z,101592.30
2018-07-19T09:21:09.397Z,101584.72
2018-07-19T09:23:36.449Z,101585.63
2018-07-19T09:26:03.520Z,101591.88
2018-07-19T09:28:30.540Z,101585.11
2018-07-19T09:30:57.529Z,101579.98
2018-07-19T09:33:24.541Z,101588.99
2018-07-19T09:35:51.856Z,101582.95
2018-07-19T09:38:19.297Z,101582.52
2018-07-19T09:40:46.329Z,101575.48
2018-07-19T09:43:13.817Z,101577.72
2018-07-19T09:45:40.941Z,101578.81
2018-07-19T09:48:07.941Z,101574.50
2018-07-19T09:50:34.967Z,101580.56
2018-07-19T09:53:02.079Z,101579.53
2018-07-19T09:55:29.117Z,101579.22
2018-07-19T09:57:56.259Z,101571.58
2018-07-19T10:00:28.980Z,101567.78
2018-07-19T10:02:55.981Z,101568.78
2018-07-19T10:05:23.045Z,101573.00
2018-07-19T10:07:50.062Z,101570.41
2018-07-19T10:10:17.106Z,101573.54
2018-07-19T10:12:44.713Z,101562.02
2018-07-19T10:15:11.689Z,101563.73
2018-07-19T10:17:38.852Z,101554.16
2018-07-19T10:20:05.869Z,101562.47
2018-07-19T10:22:32.884Z,101558.80
2018-07-19T10:24:59.869Z,101561.69
2018-07-19T10:27:26.896Z,101561.27
2018-07-19T10:29:53.945Z,101568.16
2018-07-19T10:32:21.751Z,101568.30
2018-07-19T10:34:48.591Z,101563.89
2018-07-19T10:37:15.592Z,101567.47
2018-07-19T10:39:43.062Z,101561.59
2018-07-19T10:42:10.073Z,101565.63
2018-07-19T10:44:37.125Z,101568.95
2018-07-19T10:47:04.177Z,101563.09
2018-07-19T10:49:31.224Z,101564.43
2018-07-19T10:51:58.208Z,101563.20
2018-07-19T10:54:25.189Z,101564.55
2018-07-19T10:56:52.185Z,101549.08
2018-07-19T10:59:19.172Z,101558.45
2018-07-19T11:01:46.205Z,101555.48
2018-07-19T11:04:13.333Z,101553.31
2018-07-19T11:06:40.365Z,101554.86
2018-07-19T11:09:07.882Z,101552.82
2018-07-19T11:11:34.885Z,101550.18
2018-07-19T11:14:01.906Z,101545.53
2018-07-19T11:16:29.029Z,101540.08
2018-07-19T11:18:56.034Z,101543.45
2018-07-19T11:21:23.021Z,101543.80
2018-07-19T11:23:50.076Z,101535.63
2018-07-19T11:26:17.648Z,101533.38
2018-07-19T11:28:44.643Z,101539.96
2018-07-19T11:31:11.633Z,101536.66
2018-07-19T11:33:38.596Z,101534.87
2018-07-19T11:36:06.357Z,101532.84
2018-07-19T11:38:33.381Z,101535.94
2018-07-19T11:41:00.496Z,101528.37
2018-07-19T11:43:27.457Z,101528.27
2018-07-19T11:45:54.470Z,101534.89
2018-07-19T11:48:22.164Z,101534.30
2018-07-19T11:50:50.439Z,101523.53
2018-07-19T11:53:17.412Z,101523.47
2018-07-19T11:55:44.442Z,101532.72
2018-07-19T11:58:11.515Z,101527.15
2018-07-19T12:00:38.521Z,101519.83
2018-07-19T12:03:05.505Z,101526.88
2018-07-19T12:05:32.465Z,101515.84
2018-07-19T12:07:59.576Z,101515.72
2018-07-19T12:10:26.573Z,101515.63
2018-07-19T12:12:53.597Z,101518.52
2018-07-19T12:15:20.581Z,101514.56
2018-07-19T12:17:47.613Z,101518.04
2018-07-19T12:20:14.637Z,101516.77
2018-07-19T12:22:41.849Z,101518.71
2018-07-19T12:25:08.865Z,101505.38
2018-07-19T12:27:35.881Z,101513.91
2018-07-19T12:30:03.225Z,101510.42
2018-07-19T12:32:30.297Z,101507.83
2018-07-19T12:34:57.279Z,101499.63
2018-07-19T12:37:24.269Z,101513.11
2018-07-19T12:39:51.373Z,101503.11
2018-07-19T12:42:18.345Z,101495.89
2018-07-19T12:44:45.395Z,101500.52
2018-07-19T12:47:13.085Z,101510.05
2018-07-19T12:49:40.189Z,101503.20
2018-07-19T12:52:07.181Z,101493.75
2018-07-19T12:54:34.172Z,101504.31
2018-07-19T12:57:01.443Z,101500.70
2018-07-19T12:59:28.452Z,101498.30
2018-07-19T13:01:55.432Z,101500.09
2018-07-19T13:04:22.388Z,101495.83
2018-07-19T13:06:49.742Z,101496.91
2018-07-19T13:09:16.717Z,101496.44
2018-07-19T13:11:43.673Z,101494.31
2018-07-19T13:14:10.661Z,101503.06
2018-07-19T13:16:37.619Z,101499.83
2018-07-19T13:19:04.629Z,101492.37
2018-07-19T13:21:31.704Z,101493.06
2018-07-19T13:23:58.961Z,101497.98
2018-07-19T13:26:26.117Z,101495.05
2018-07-19T13:28:53.976Z,101500.97
2018-07-19T13:31:21.029Z,101498.52
2018-07-19T13:33:48.029Z,101492.88
2018-07-19T13:36:15.137Z,101490.74
2018-07-19T13:38:42.166Z,101490.45
2018-07-19T13:41:09.157Z,101491.95
2018-07-19T13:43:36.165Z,101487.87
2018-07-19T13:46:03.181Z,101487.37
2018-07-19T13:48:30.800Z,101488.98
2018-07-19T13:50:57.753Z,101492.83
2018-07-19T13:53:39.078Z,101491.09
2018-07-19T13:56:06.973Z,101482.01
2018-07-19T13:58:34.930Z,101485.61
2018-07-19T14:01:02.077Z,101484.30
2018-07-19T14:03:29.574Z,101473.09
2018-07-19T14:05:56.589Z,101483.80
2018-07-19T14:08:24.026Z,101477.83
2018-07-19T14:10:51.058Z,101488.67
2018-07-19T14:13:18.061Z,101483.94
2018-07-19T14:15:45.165Z,101479.86
2018-07-19T14:18:12.693Z,101478.61
2018-07-19T14:20:39.678Z,101484.31
2018-07-19T14:23:06.818Z,101476.48
2018-07-19T14:25:33.800Z,101472.55
2018-07-19T14:28:01.198Z,101470.23
2018-07-19T14:30:28.197Z,101475.24
2018-07-19T14:32:55.193Z,101466.91
2018-07-19T14:35:22.173Z,101472.55
2018-07-19T14:37:49.522Z,101474.16
2018-07-19T14:40:16.526Z,101476.34
2018-07-19T14:42:43.504Z,101476.66
2018-07-19T14:45:10.516Z,101473.07
2018-07-19T14:47:37.597Z,101468.86
2018-07-19T14:50:04.717Z,101472.36
2018-07-19T14:52:31.713Z,101464.53
2018-07-19T14:54:58.917Z,101461.75
2018-07-19T14:57:25.929Z,101458.36
2018-07-19T14:59:52.973Z,101468.38
2018-07-19T15:02:19.997Z,101456.91
2018-07-19T15:04:47.039Z,101452.61
2018-07-19T15:07:14.116Z,101457.34
2018-07-19T15:09:41.077Z,101450.63
2018-07-19T15:12:08.144Z,101452.18
2018-07-19T15:14:35.129Z,101461.57
2018-07-19T15:17:02.117Z,101450.20
2018-07-19T15:19:29.097Z,101456.19
2018-07-19T15:21:56.078Z,101458.36
2018-07-19T15:24:23.058Z,101454.55
2018-07-19T15:26:50.061Z,101447.63
2018-07-19T15:29:17.101Z,101453.19
2018-07-19T15:31:44.080Z,101452.59
2018-07-19T15:34:11.106Z,101447.75
2018-07-19T15:36:38.085Z,101451.75
2018-07-19T15:39:06.416Z,101446.80
2018-07-19T15:41:33.553Z,101445.45
2018-07-19T15:44:00.584Z,101447.42
2018-07-19T15:46:27.560Z,101446.41
2018-07-19T15:48:54.931Z,101443.72
2018-07-19T15:51:21.962Z,101443.52
2018-07-19T15:53:49.014Z,101447.13
2018-07-19T15:56:15.996Z,101438.58
2018-07-19T15:58:43.017Z,101438.78
2018-07-19T16:01:10.037Z,101446.00
2018-07-19T16:03:38.162Z,101431.34
2018-07-19T16:06:05.233Z,101435.98
2018-07-19T16:08:32.460Z,101441.36
2018-07-19T16:10:59.520Z,101437.34
2018-07-19T16:13:26.487Z,101434.33
2018-07-19T16:15:54.466Z,101429.30
2018-07-19T16:18:21.455Z,101431.95
2018-07-19T16:20:48.478Z,101431.77
2018-07-19T16:23:15.433Z,101425.58
2018-07-19T16:25:42.468Z,101425.58
2018-07-19T16:28:09.456Z,101422.47
2018-07-19T16:30:36.570Z,101421.87
2018-07-19T16:33:03.696Z,101426.39
2018-07-19T16:35:30.711Z,101424.03
2018-07-19T16:37:57.745Z,101423.72
2018-07-19T16:40:24.746Z,101421.44
2018-07-19T16:42:51.812Z,101426.00
2018-07-19T16:45:18.760Z,101426.19
2018-07-19T16:47:45.781Z,101426.77
2018-07-19T16:50:12.788Z,101421.62
2018-07-19T16:52:39.817Z,101420.58
2018-07-19T16:55:06.973Z,101416.45
2018-07-19T16:57:34.010Z,101427.28
2018-07-19T17:00:00.992Z,101427.79
2018-07-19T17:02:28.022Z,101422.11
2018-07-19T17:04:55.012Z,101418.42
2018-07-19T17:07:22.003Z,101424.89
2018-07-19T17:09:49.016Z,101420.08
2018-07-19T17:12:16.125Z,101426.13
2018-07-19T17:14:43.092Z,101420.27
2018-07-19T17:17:10.110Z,101421.71
2018-07-19T17:19:39.176Z,101422.03
2018-07-19T17:22:06.177Z,101417.61
2018-07-19T17:24:33.144Z,101416.45
2018-07-19T17:27:00.181Z,101417.59
2018-07-19T17:29:27.317Z,101412.23
2018-07-19T17:31:54.321Z,101413.78
2018-07-19T17:34:21.481Z,101412.45
2018-07-19T17:36:48.446Z,101416.46
2018-07-19T17:39:15.468Z,101411.09
2018-07-19T17:41:42.524Z,101419.75
2018-07-19T17:44:09.624Z,101417.08
2018-07-19T17:46:36.849Z,101416.54
2018-07-19T17:49:04.434Z,101414.88
2018-07-19T17:51:31.556Z,101412.09
2018-07-19T17:53:58.549Z,101413.43
2018-07-19T17:56:25.512Z,101415.09
2018-07-19T17:58:52.476Z,101410.89
2018-07-19T18:01:19.664Z,101417.08
2018-07-19T18:03:46.903Z,101412.79
2018-07-19T18:06:13.997Z,101410.53
2018-07-19T18:08:41.080Z,101416.91
2018-07-19T18:11:08.177Z,101401.37
2018-07-19T18:13:35.985Z,101406.29
2018-07-19T18:16:03.117Z,101412.80
2018-07-19T18:18:30.713Z,101406.19
2018-07-19T18:20:57.784Z,101402.90
2018-07-19T18:23:24.813Z,101414.45
2018-07-19T18:25:51.821Z,101414.14
2018-07-19T18:28:18.841Z,101412.27
2018-07-19T18:30:45.910Z,101405.74
2018-07-19T18:33:13.181Z,101412.84
2018-07-19T18:35:40.297Z,101408.69
2018-07-19T18:38:07.305Z,101406.69
2018-07-19T18:40:34.629Z,101415.48
2018-07-19T18:43:01.633Z,101407.53
2018-07-19T18:45:28.601Z,101409.95
2018-07-19T18:47:55.597Z,101411.42
2018-07-19T18:50:22.964Z,101414.78
2018-07-19T18:52:49.938Z,101412.40
2018-07-19T18:55:16.969Z,101417.84
2018-07-19T18:57:43.948Z,101414.55
2018-07-19T19:00:10.993Z,101417.85
2018-07-19T19:02:38.091Z,101419.06
2018-07-19T19:05:05.138Z,101417.75
2018-07-19T19:07:32.258Z,101416.13
2018-07-19T19:10:00.022Z,101413.78
2018-07-19T19:12:26.976Z,101418.20
2018-07-19T19:14:53.973Z,101417.17
2018-07-19T19:17:20.957Z,101416.78
2018-07-19T19:19:47.999Z,101418.34
2018-07-19T19:22:14.993Z,101409.95
2018-07-19T19:24:42.383Z,101428.92
2018-07-19T19:27:09.408Z,101423.84
2018-07-19T19:29:36.432Z,101428.58
2018-07-19T19:32:03.542Z,101427.30
2018-07-19T19:34:30.605Z,101426.06
2018-07-19T19:36:57.729Z,101428.64
2018-07-19T19:39:24.865Z,101430.06
2018-07-19T19:41:52.849Z,101432.64
2018-07-19T19:44:20.287Z,101432.56
2018-07-19T19:46:47.301Z,101435.94
2018-07-19T19:49:14.277Z,101433.34
2018-07-19T19:51:41.302Z,101431.43
2018-07-19T19:54:08.264Z,101427.15
2018-07-19T19:56:35.286Z,101429.19
2018-07-19T19:59:02.302Z,101432.26
2018-07-19T20:01:29.332Z,101416.45
2018-07-19T20:03:56.365Z,101422.83
2018-07-19T20:06:23.589Z,101415.88
2018-07-19T20:08:50.576Z,101420.60
2018-07-19T20:11:17.585Z,101414.98
2018-07-19T20:13:44.573Z,101412.53
2018-07-19T20:16:11.589Z,101410.91
2018-07-19T20:18:38.590Z,101415.44
2018-07-19T20:21:05.762Z,101418.63
2018-07-19T20:23:32.789Z,101418.83
2018-07-19T20:25:59.778Z,101418.04
2018-07-19T20:28:26.816Z,101424.05
2018-07-19T20:30:53.853Z,101426.75
2018-07-19T20:33:20.909Z,101417.94
2018-07-19T20:35:48.005Z,101418.32
2018-07-19T20:38:15.141Z,101421.66
2018-07-19T20:40:42.951Z,101418.20
2018-07-19T20:43:09.933Z,101415.52
2018-07-19T20:45:36.984Z,101416.87
2018-07-19T20:50:45.905Z,101416.91
2018-07-19T20:53:12.926Z,101416.95
2018-07-19T20:55:39.949Z,101427.42
2018-07-19T20:58:06.941Z,101420.31
2018-07-19T21:00:33.957Z,101423.34
2018-07-19T21:03:00.997Z,101410.91
2018-07-19T21:05:28.272Z,101410.91
2018-07-19T21:07:55.253Z,101426.19
2018-07-19T21:10:22.253Z,101412.09
2018-07-19T21:12:49.285Z,101415.45
2018-07-19T21:15:16.241Z,101408.50
2018-07-19T21:17:43.257Z,101417.30
2018-07-19T21:20:10.266Z,101409.50
2018-07-19T21:22:37.313Z,101415.14
2018-07-19T21:25:04.845Z,101415.51
2018-07-19T21:27:32.601Z,101418.64
2018-07-19T21:29:59.800Z,101409.87
2018-07-19T21:32:26.788Z,101413.51
2018-07-19T21:34:53.832Z,101408.86
2018-07-19T21:37:20.817Z,101411.19
2018-07-19T21:39:47.849Z,101414.53
2018-07-19T21:42:14.997Z,101411.20
2018-07-19T21:44:41.961Z,101409.38
2018-07-19T21:47:08.948Z,101417.84
2018-07-19T21:49:35.967Z,101407.73
2018-07-19T21:52:02.978Z,101407.05
2018-07-19T21:54:29.957Z,101411.03
2018-07-19T21:56:56.956Z,101410.55
2018-07-19T21:59:23.937Z,101411.72
2018-07-19T22:01:50.908Z,101412.70
2018-07-19T22:04:17.876Z,101410.22
2018-07-19T22:06:45.154Z,101407.71
2018-07-19T22:09:12.745Z,101412.36
2018-07-19T22:11:39.753Z,101413.37
2018-07-19T22:14:07.042Z,101417.68
2018-07-19T22:16:34.268Z,101416.53
2018-07-19T22:19:01.458Z,101416.20
2018-07-19T22:21:28.476Z,101420.17
2018-07-19T22:23:55.769Z,101419.65
2018-07-19T22:26:22.881Z,101425.97
2018-07-19T22:28:49.904Z,101427.62
2018-07-19T22:31:17.325Z,101423.96
2018-07-19T22:33:44.693Z,101421.48
2018-07-19T22:36:11.677Z,101424.95
2018-07-19T22:38:39.225Z,101425.96
2018-07-19T22:41:06.697Z,101425.12
2018-07-19T22:43:33.749Z,101428.93
2018-07-19T22:46:00.772Z,101429.91
2018-07-19T22:48:27.746Z,101428.27
2018-07-19T22:50:54.837Z,101423.42
2018-07-19T22:53:21.869Z,101419.42
2018-07-19T22:55:50.608Z,101419.92
2018-07-19T22:58:17.676Z,101420.41
2018-07-19T23:00:44.685Z,101412.42
2018-07-19T23:03:11.653Z,101428.02
2018-07-19T23:05:38.657Z,101427.50
2018-07-19T23:08:05.676Z,101427.98
2018-07-19T23:10:32.689Z,101424.70
2018-07-19T23:12:59.801Z,101421.70
2018-07-19T23:15:27.798Z,101421.70
2018-07-19T23:17:54.785Z,101423.87
2018-07-19T23:20:21.753Z,101419.06
2018-07-19T23:22:53.797Z,101418.05
2018-07-19T23:25:20.804Z,101412.43
2018-07-19T23:27:47.792Z,101415.40
2018-07-19T23:30:15.065Z,101414.70
2018-07-19T23:32:42.057Z,101418.19
2018-07-19T23:35:09.105Z,101421.98
2018-07-19T23:37:37.664Z,101415.50
2018-07-19T23:40:25.346Z,101410.34
2018-07-19T23:42:56.514Z,101410.34
2018-07-19T23:45:29.940Z,101413.30
2018-07-19T23:47:57.005Z,101411.80
2018-07-19T23:50:23.995Z,101408.00
2018-07-19T23:52:51.232Z,101405.31
2018-07-19T23:55:18.270Z,101410.47
2018-07-19T23:57:45.281Z,101415.91
